Long Beach, CA (90842)

5:22 PM PST on December 20, 2014 (GMT -0800)
Bixby Terrace | Change Station
CLOSE
Current Station
Personal Weather Station
Location: Long Beach, CA
Elevation: 45 ft
Nearby Weather Stations
Active Advisory: High Surf Advisory

Elev 45 ft 33.83 °N, 118.17 °W | Updated 19 seconds ago

Overcast
Overcast
60.5 °F
Feels Like 60.5 °F
N
0.0
Wind Variable Wind from East
Gusts 1.0 mph

Today
High -- | Low -- °F
--% Chance of Precip.
Yesterday
High -- | Low -- °F
Precip. -- in
6:53 AM 4:47 PM
Waning Crescent, 1% visible
Pressure 30.14 in
Visibility 10.0 miles
Clouds Overcast 1900 ft
Dew Point 55 °F
Humidity 83%
Rainfall 0.00 in
Snow Depth Not available.
UV 0 out of 12
Pollen 4.00 out of 12
Air Quality Not available.
Flu Activity Not available.
METAR KLGB 210053Z 13003KT 10SM OVC019 16/13 A3013 RMK AO2 SLP204 T01610128

More Conditions Fewer Conditions

Pressure 30.14 in
Visibility 10.0 miles
Clouds Overcast 1900 ft
Dew Point 55 °F
Humidity 83%
Rainfall 0.00 in
Snow Depth Not available.
UV 0 out of 12
Pollen 4.00 out of 12
Air Quality Not available.
Flu Activity Not available.
METAR KLGB 210053Z 13003KT 10SM OVC019 16/13 A3013 RMK AO2 SLP204 T01610128

More Conditions Fewer Conditions

10-Day Weather Forecast

Almanac

Astronomy

Dec. 20, 2014 Rise Set
Actual Time
Civil Twilight
Nautical Twilight
Astronomical Twilight
Moon
Length of Visible Light
Length of Day
Tomorrow will be .
, % of the Moon is Illuminated

Today's Extremes

State Highs State Lows

Community

WunderPhotos

Upload Photos

1,779,335 photos uploaded!

WunderBlogs® & News

Nearby

Air Quality

  Air Quality AQ Index Pollutant
Not available.

Snow Depth

Station Depth Elevation

Earthquake Activity

City Distance Mag. Time & Date
Minimum magnitude displayed is 2.5.

Coastal Water Temperatures

Place Temperature

Nearby Weather Stations